Portada
METAR-TAF:

METAR-TAF

Aeroports :

Djibouti, Djibouti

latitud: 11-33N, longitud: 043-10E, altitud: 49 m

Observació

L'informe es va fer fa 3 hores i 4 minuts, a les 17:00 UTC
Vent 4 kt del Est/Sud-Est
Temperatura 29°C
Humitat 74%
Pressió 1010 hPa
Visibilitat 10 km o més
Escasses núvols a una alçada de 2300 ft

METAR: HDAM 201700Z 11004KT 9999 FEW023 29/24 Q1010

Hora: 23:04 (20:04 UTC)

Pronòstic

L'informe es va fer fa 3 hores i 4 minuts, a les 17:00 UTC
Pronòstic vàlid del 20 a les 18 UTC al 21 a les 18 UTC
Vent 3 kt amb direcció variable
Núvols disperses a una alçada de 2300 ft
Evolucionant progressivament
l' 21 a les 06 UTC al 21 a les 12 UTC
Vent 10 kt del Est
Núvols disperses a una alçada de 2300 ft

TAF: HDAM 201700Z 2018/2118 VRB03KT 9/9 SCT023 BECMG 2106/2112 10010KT SCT023

Observacions i pronòstics meteorològics de més de 4000 aeroports (METAR i TAF).

Les estacions disponibles són els punts grocs i vermells al mapa.

Posi el ratolí al punt desitjat per veure el nom de l'estació.

Feu clic per veure les observacions i els pronòstics meteorològics.

Per canviar el mapa: feu clic els botons verds amb una creu de color negre per apropar; al botó verd amb un guió per allunyar la imatge; o en les fletxes verdes per a mapes adjacents.


METAR-TAF: